createdAt,value
2023-01-28T00:01:41.968Z,-0.98
2023-01-28T00:04:10.197Z,-1.02
2023-01-28T00:06:39.829Z,-1.06
2023-01-28T00:09:08.049Z,-1.12
2023-01-28T00:11:36.265Z,-1.16
2023-01-28T00:14:04.921Z,-1.20
2023-01-28T00:16:33.339Z,-1.24
2023-01-28T00:19:01.399Z,-1.28
2023-01-28T00:21:29.473Z,-1.32
2023-01-28T00:23:58.980Z,-1.35
2023-01-28T00:26:27.440Z,-1.40
2023-01-28T00:28:55.727Z,-1.42
2023-01-28T00:31:25.157Z,-1.44
2023-01-28T00:33:55.659Z,-1.45
2023-01-28T00:36:25.865Z,-1.45
2023-01-28T00:38:55.317Z,-1.43
2023-01-28T00:41:25.481Z,-1.42
2023-01-28T00:43:54.278Z,-1.41
2023-01-28T00:46:23.107Z,-1.44
2023-01-28T00:48:51.328Z,-1.38
2023-01-28T00:51:20.797Z,-1.34
2023-01-28T00:53:50.483Z,-1.31
2023-01-28T00:56:19.630Z,-1.28
2023-01-28T00:58:49.152Z,-1.21
2023-01-28T01:01:18.328Z,-1.18
2023-01-28T01:03:46.813Z,-1.15
2023-01-28T01:06:16.176Z,-1.11
2023-01-28T01:08:50.206Z,-1.06
2023-01-28T01:11:19.749Z,-1.03
2023-01-28T01:13:52.760Z,-1.00
2023-01-28T01:16:21.064Z,-0.98
2023-01-28T01:18:50.355Z,-0.94
2023-01-28T01:21:19.337Z,-0.93
2023-01-28T01:23:47.703Z,-0.92
2023-01-28T01:26:16.469Z,-0.92
2023-01-28T01:28:44.956Z,-0.94
2023-01-28T01:31:17.739Z,-0.96
2023-01-28T01:33:46.656Z,-0.95
2023-01-28T01:36:15.633Z,-0.94
2023-01-28T01:38:43.812Z,-0.91
2023-01-28T01:41:23.242Z,-0.88
2023-01-28T01:44:05.268Z,-0.82
2023-01-28T01:46:40.005Z,-0.76
2023-01-28T01:49:13.799Z,-0.74
2023-01-28T01:51:42.962Z,-0.67
2023-01-28T01:54:12.827Z,-0.61
2023-01-28T01:56:45.411Z,-0.59
2023-01-28T01:59:16.097Z,-0.54
2023-01-28T02:01:47.038Z,-0.49
2023-01-28T02:04:21.115Z,-0.42
2023-01-28T02:06:49.781Z,-0.37
2023-01-28T02:09:23.962Z,-0.30
2023-01-28T02:11:53.670Z,-0.25
2023-01-28T02:14:30.889Z,-0.19
2023-01-28T02:17:01.713Z,-0.11
2023-01-28T02:19:34.434Z,-0.04
2023-01-28T02:22:11.592Z,0.02
2023-01-28T02:24:54.671Z,0.04
2023-01-28T02:27:28.760Z,0.08
2023-01-28T02:30:01.155Z,0.14
2023-01-28T02:32:33.054Z,0.19
2023-01-28T02:35:05.582Z,0.21
2023-01-28T02:37:36.265Z,0.25
2023-01-28T02:40:07.565Z,0.29
2023-01-28T02:42:38.483Z,0.31
2023-01-28T02:45:16.716Z,0.37
2023-01-28T02:47:59.070Z,0.39
2023-01-28T02:50:33.307Z,0.46
2023-01-28T02:53:27.003Z,0.47
2023-01-28T02:55:59.239Z,0.48
2023-01-28T02:58:31.135Z,0.56
2023-01-28T03:01:04.737Z,0.59
2023-01-28T03:03:37.172Z,0.62
2023-01-28T03:06:08.517Z,0.65
2023-01-28T03:08:56.813Z,0.67
2023-01-28T03:11:42.288Z,0.70
2023-01-28T03:14:28.984Z,0.71
2023-01-28T03:17:18.512Z,0.72
2023-01-28T03:20:03.960Z,0.75
2023-01-28T03:22:51.455Z,0.77
2023-01-28T03:25:39.519Z,0.80
2023-01-28T03:28:27.902Z,0.85
2023-01-28T03:31:17.801Z,0.91
2023-01-28T03:34:09.979Z,0.94
2023-01-28T03:36:54.474Z,0.99
2023-01-28T03:39:41.086Z,1.02
2023-01-28T03:42:12.889Z,1.05
2023-01-28T03:44:53.111Z,1.08
2023-01-28T03:47:23.119Z,1.09
2023-01-28T03:49:53.894Z,1.16
2023-01-28T03:52:24.160Z,1.23
2023-01-28T03:54:53.197Z,1.27
2023-01-28T03:57:22.770Z,1.29
2023-01-28T03:59:52.892Z,1.34
2023-01-28T04:02:21.817Z,1.38
2023-01-28T04:04:52.757Z,1.43
2023-01-28T04:07:21.032Z,1.45
2023-01-28T04:10:10.048Z,1.51
2023-01-28T04:12:50.025Z,1.54
2023-01-28T04:15:19.948Z,1.57
2023-01-28T04:17:50.287Z,1.58
2023-01-28T04:20:29.740Z,1.62
2023-01-28T04:23:00.817Z,1.59
2023-01-28T04:25:30.303Z,1.59
2023-01-28T04:27:59.688Z,1.58
2023-01-28T04:30:30.434Z,1.60
2023-01-28T04:33:17.369Z,1.62
2023-01-28T04:36:07.516Z,1.62
2023-01-28T04:38:53.600Z,1.66
2023-01-28T04:41:39.908Z,1.67
2023-01-28T04:44:17.359Z,1.67
2023-01-28T04:46:54.231Z,1.71
2023-01-28T04:49:40.864Z,1.75
2023-01-28T04:52:27.374Z,1.75
2023-01-28T04:55:18.593Z,1.81
2023-01-28T04:57:48.130Z,1.80
2023-01-28T05:00:16.619Z,1.84
2023-01-28T05:02:44.755Z,1.85
2023-01-28T05:05:13.288Z,1.90
2023-01-28T05:07:54.798Z,1.97
2023-01-28T05:10:23.787Z,2.01
2023-01-28T05:12:52.263Z,2.02
2023-01-28T05:15:21.097Z,2.06
2023-01-28T05:17:49.774Z,2.08
2023-01-28T05:20:21.299Z,2.12
2023-01-28T05:22:51.355Z,2.12
2023-01-28T05:25:38.999Z,2.16
2023-01-28T05:28:07.217Z,2.19
2023-01-28T05:30:35.344Z,2.21
2023-01-28T05:33:03.762Z,2.22
2023-01-28T05:35:32.318Z,2.23
2023-01-28T05:38:00.691Z,2.22
2023-01-28T05:40:28.863Z,2.18
2023-01-28T05:42:59.391Z,2.20
2023-01-28T05:45:44.717Z,2.21
2023-01-28T05:48:33.412Z,2.17
2023-01-28T05:51:25.075Z,2.18
2023-01-28T05:53:57.395Z,2.20
2023-01-28T05:56:25.558Z,2.16
2023-01-28T05:58:55.636Z,2.19
2023-01-28T06:01:23.668Z,2.20
2023-01-28T06:03:55.642Z,2.17
2023-01-28T06:06:23.987Z,2.17
2023-01-28T06:08:52.047Z,2.18
2023-01-28T06:11:26.750Z,2.16
2023-01-28T06:13:59.523Z,2.19
2023-01-28T06:16:33.835Z,2.17
2023-01-28T06:19:20.682Z,2.16
2023-01-28T06:21:49.096Z,2.15
2023-01-28T06:24:18.799Z,2.16
2023-01-28T06:26:47.038Z,2.14
2023-01-28T06:29:17.160Z,2.10
2023-01-28T06:31:45.216Z,2.06
2023-01-28T06:34:13.310Z,2.08
2023-01-28T06:36:41.579Z,2.05
2023-01-28T06:39:09.933Z,2.05
2023-01-28T06:41:38.132Z,2.02
2023-01-28T06:44:06.595Z,2.00
2023-01-28T06:46:36.250Z,2.06
2023-01-28T06:49:04.422Z,2.01
2023-01-28T06:51:32.745Z,2.04
2023-01-28T06:54:01.336Z,1.99
2023-01-28T06:56:29.537Z,2.03
2023-01-28T06:58:57.715Z,1.93
2023-01-28T07:01:26.150Z,1.89
2023-01-28T07:03:55.644Z,1.96
2023-01-28T07:06:23.682Z,1.96
2023-01-28T07:08:51.864Z,1.97
2023-01-28T07:11:19.990Z,1.98
2023-01-28T07:13:48.202Z,2.00
2023-01-28T07:16:16.310Z,2.00
2023-01-28T07:18:44.378Z,2.02
2023-01-28T07:21:14.060Z,2.06
2023-01-28T07:23:42.493Z,2.07
2023-01-28T07:26:10.609Z,2.12
2023-01-28T07:28:39.295Z,2.15
2023-01-28T07:31:07.520Z,2.17
2023-01-28T07:33:35.844Z,2.21
2023-01-28T07:36:04.248Z,2.26
2023-01-28T07:38:33.929Z,2.27
2023-01-28T07:41:01.978Z,2.30
2023-01-28T07:43:30.048Z,2.32
2023-01-28T07:46:01.150Z,2.36
2023-01-28T07:48:29.518Z,2.38
2023-01-28T07:50:59.572Z,2.41
2023-01-28T07:53:27.762Z,2.44
2023-01-28T07:56:02.141Z,2.46
2023-01-28T07:58:30.293Z,2.48
2023-01-28T08:01:00.194Z,2.51
2023-01-28T08:03:29.181Z,2.53
2023-01-28T08:05:58.073Z,2.54
2023-01-28T08:08:27.302Z,2.56
2023-01-28T08:10:55.608Z,2.59
2023-01-28T08:13:25.488Z,2.61
2023-01-28T08:15:56.416Z,2.60
2023-01-28T08:18:24.525Z,2.61
2023-01-28T08:20:56.323Z,2.63
2023-01-28T08:23:26.967Z,2.64
2023-01-28T08:25:55.319Z,2.68
2023-01-28T08:28:23.421Z,2.71
2023-01-28T08:30:53.334Z,2.71
2023-01-28T08:33:21.798Z,2.73
2023-01-28T08:35:50.027Z,2.75
2023-01-28T08:38:20.212Z,2.74
2023-01-28T08:40:50.592Z,2.74
2023-01-28T08:43:19.293Z,2.76
2023-01-28T08:45:47.355Z,2.79
2023-01-28T08:48:18.544Z,2.82
2023-01-28T08:50:47.584Z,2.84
2023-01-28T08:53:16.826Z,2.88
2023-01-28T08:55:48.684Z,2.90
2023-01-28T08:58:18.163Z,2.89
2023-01-28T09:00:47.722Z,2.94
2023-01-28T09:03:19.075Z,2.97
2023-01-28T09:05:49.782Z,2.99
2023-01-28T09:08:18.154Z,3.04
2023-01-28T09:10:46.571Z,3.02
2023-01-28T09:13:15.681Z,3.01
2023-01-28T09:15:44.288Z,3.07
2023-01-28T09:18:12.561Z,3.04
2023-01-28T09:20:42.241Z,3.04
2023-01-28T09:23:12.217Z,3.09
2023-01-28T09:25:40.363Z,3.15
2023-01-28T09:28:08.728Z,3.18
2023-01-28T09:30:38.257Z,3.22
2023-01-28T09:33:11.137Z,3.33
2023-01-28T09:35:43.949Z,3.41
2023-01-28T09:38:12.825Z,3.48
2023-01-28T09:40:45.498Z,3.60
2023-01-28T09:43:27.750Z,3.63
2023-01-28T09:45:58.202Z,3.75
2023-01-28T09:48:31.527Z,3.79
2023-01-28T09:51:02.729Z,3.80
2023-01-28T09:53:32.393Z,3.85
2023-01-28T09:56:05.540Z,3.88
2023-01-28T09:58:34.603Z,3.90
2023-01-28T10:01:11.711Z,3.94
2023-01-28T10:03:51.735Z,3.96
2023-01-28T10:06:28.536Z,4.01
2023-01-28T10:09:18.458Z,4.03
2023-01-28T10:11:56.633Z,4.11
2023-01-28T10:14:37.648Z,4.11
2023-01-28T10:17:14.978Z,4.15
2023-01-28T10:19:48.624Z,4.22
2023-01-28T10:22:22.704Z,4.22
2023-01-28T10:24:54.231Z,4.32
2023-01-28T10:27:26.151Z,4.37
2023-01-28T10:29:56.575Z,4.47
2023-01-28T10:32:30.260Z,4.49
2023-01-28T10:34:59.836Z,4.50
2023-01-28T10:37:36.642Z,4.51
2023-01-28T10:40:06.518Z,4.57
2023-01-28T10:42:38.256Z,4.70
2023-01-28T10:45:12.524Z,4.61
2023-01-28T10:47:45.067Z,4.75
2023-01-28T10:50:17.625Z,4.87
2023-01-28T10:52:57.643Z,4.97
2023-01-28T10:55:27.582Z,5.00
2023-01-28T10:58:00.248Z,5.04
2023-01-28T11:00:37.602Z,5.15
2023-01-28T11:03:10.595Z,5.29
2023-01-28T11:05:42.049Z,5.41
2023-01-28T11:08:15.407Z,5.49
2023-01-28T11:10:47.138Z,5.52
2023-01-28T11:13:17.276Z,5.65
2023-01-28T11:15:52.248Z,5.71
2023-01-28T11:18:28.689Z,5.76
2023-01-28T11:21:02.839Z,5.75
2023-01-28T11:23:41.851Z,5.80
2023-01-28T11:26:19.037Z,5.90
2023-01-28T11:28:51.475Z,5.98
2023-01-28T11:31:26.146Z,6.02
2023-01-28T11:34:02.320Z,6.04
2023-01-28T11:36:37.938Z,6.03
2023-01-28T11:39:21.229Z,6.04
2023-01-28T11:41:54.608Z,6.15
2023-01-28T11:44:25.899Z,6.22
2023-01-28T11:47:20.297Z,6.27
2023-01-28T11:50:03.267Z,6.43
2023-01-28T11:53:05.051Z,6.51
2023-01-28T11:55:41.380Z,6.43
2023-01-28T11:58:16.903Z,6.48
2023-01-28T12:00:50.262Z,6.54
2023-01-28T12:03:36.302Z,6.62
2023-01-28T12:06:13.257Z,6.62
2023-01-28T12:08:46.632Z,6.60
2023-01-28T12:11:48.616Z,6.69
2023-01-28T12:14:32.990Z,6.75
2023-01-28T12:17:15.677Z,6.71
2023-01-28T12:19:54.774Z,6.77
2023-01-28T12:22:46.597Z,6.83
2023-01-28T12:25:27.869Z,6.90
2023-01-28T12:28:10.640Z,6.95
2023-01-28T12:30:56.690Z,6.92
2023-01-28T12:33:40.990Z,7.09
2023-01-28T12:36:22.077Z,7.11
2023-01-28T12:39:04.121Z,7.14
2023-01-28T12:41:40.047Z,7.15
2023-01-28T12:44:19.835Z,7.19
2023-01-28T12:46:57.586Z,7.05
2023-01-28T12:49:35.367Z,7.13
2023-01-28T12:52:15.028Z,7.17
2023-01-28T12:54:56.610Z,7.16
2023-01-28T12:57:27.467Z,7.22
2023-01-28T13:00:02.421Z,7.23
2023-01-28T13:02:40.616Z,7.25
2023-01-28T13:05:18.620Z,7.24
2023-01-28T13:07:55.264Z,7.33
2023-01-28T13:10:33.649Z,7.25
2023-01-28T13:13:09.039Z,7.27
2023-01-28T13:15:47.982Z,7.25
2023-01-28T13:18:38.763Z,7.25
2023-01-28T13:21:11.853Z,7.23
2023-01-28T13:23:46.432Z,7.37
2023-01-28T13:26:30.516Z,7.32
2023-01-28T13:29:09.956Z,7.44
2023-01-28T13:31:41.472Z,7.50
2023-01-28T13:34:11.430Z,7.50
2023-01-28T13:36:48.960Z,7.58
2023-01-28T13:39:24.677Z,7.59
2023-01-28T13:42:01.059Z,7.59
2023-01-28T13:44:32.009Z,7.65
2023-01-28T13:47:20.009Z,7.67
2023-01-28T13:49:53.769Z,7.63
2023-01-28T13:52:29.965Z,7.68
2023-01-28T13:55:09.862Z,7.54
2023-01-28T13:57:55.389Z,7.53
2023-01-28T14:00:27.294Z,7.51
2023-01-28T14:03:17.633Z,7.57
2023-01-28T14:06:07.587Z,7.56
2023-01-28T14:08:59.980Z,7.52
2023-01-28T14:11:50.817Z,7.58
2023-01-28T14:14:31.665Z,7.63
2023-01-28T14:17:01.748Z,7.59
2023-01-28T14:19:32.949Z,7.56
2023-01-28T14:22:07.552Z,7.64
2023-01-28T14:24:38.025Z,7.65
2023-01-28T14:27:17.815Z,7.67
2023-01-28T14:29:57.676Z,7.66
2023-01-28T14:32:31.501Z,7.74
2023-01-28T14:35:05.316Z,7.78
2023-01-28T14:37:39.150Z,7.71
2023-01-28T14:40:18.960Z,7.78
2023-01-28T14:42:54.626Z,7.78
2023-01-28T14:45:39.424Z,7.82
2023-01-28T14:48:18.158Z,7.86
2023-01-28T14:50:54.257Z,7.81
2023-01-28T14:53:41.510Z,7.82
2023-01-28T14:56:17.391Z,7.74
2023-01-28T14:58:54.629Z,7.70
2023-01-28T15:01:27.535Z,7.81
2023-01-28T15:03:57.459Z,7.79
2023-01-28T15:06:30.772Z,7.75
2023-01-28T15:09:13.244Z,7.75
2023-01-28T15:11:44.688Z,7.74
2023-01-28T15:14:17.693Z,7.75
2023-01-28T15:16:48.819Z,7.72
2023-01-28T15:19:23.369Z,7.75
2023-01-28T15:21:56.154Z,7.59
2023-01-28T15:24:27.382Z,7.61
2023-01-28T15:27:01.807Z,7.53
2023-01-28T15:29:34.369Z,7.48
2023-01-28T15:32:07.292Z,7.47
2023-01-28T15:34:37.173Z,7.51
2023-01-28T15:37:10.094Z,7.44
2023-01-28T15:39:45.393Z,7.46
2023-01-28T15:42:28.428Z,7.42
2023-01-28T15:45:06.021Z,7.38
2023-01-28T15:47:39.533Z,7.32
2023-01-28T15:50:16.145Z,7.35
2023-01-28T15:52:50.245Z,7.37
2023-01-28T15:55:37.834Z,7.35
2023-01-28T15:58:30.253Z,7.38
2023-01-28T16:01:15.945Z,7.25
2023-01-28T16:03:45.949Z,7.30
2023-01-28T16:06:21.390Z,7.24
2023-01-28T16:08:54.564Z,7.26
2023-01-28T16:11:26.155Z,7.26
2023-01-28T16:14:00.298Z,7.22
2023-01-28T16:16:34.394Z,7.24
2023-01-28T16:19:08.459Z,7.24
2023-01-28T16:21:41.390Z,7.25
2023-01-28T16:24:24.658Z,7.27
2023-01-28T16:26:59.938Z,7.26
2023-01-28T16:29:30.843Z,7.20
2023-01-28T16:32:04.414Z,7.23
2023-01-28T16:34:37.795Z,7.19
2023-01-28T16:37:12.058Z,7.16
2023-01-28T16:39:40.359Z,7.17
2023-01-28T16:42:10.020Z,7.14
2023-01-28T16:44:38.549Z,7.12
2023-01-28T16:47:10.130Z,7.03
2023-01-28T16:49:40.224Z,7.05
2023-01-28T16:52:08.455Z,7.01
2023-01-28T16:54:37.956Z,7.02
2023-01-28T16:57:07.269Z,6.96
2023-01-28T16:59:37.749Z,6.87
2023-01-28T17:02:09.404Z,6.90
2023-01-28T17:04:37.648Z,6.80
2023-01-28T17:07:05.951Z,6.74
2023-01-28T17:09:36.209Z,6.80
2023-01-28T17:12:06.459Z,6.80
2023-01-28T17:14:34.525Z,6.82
2023-01-28T17:17:02.693Z,6.81
2023-01-28T17:19:32.564Z,6.75
2023-01-28T17:22:00.671Z,6.78
2023-01-28T17:24:30.717Z,6.75
2023-01-28T17:26:58.830Z,6.74
2023-01-28T17:29:26.984Z,6.76
2023-01-28T17:31:55.247Z,6.71
2023-01-28T17:34:23.286Z,6.70
2023-01-28T17:36:52.755Z,6.67
2023-01-28T17:39:20.906Z,6.62
2023-01-28T17:41:52.153Z,6.63
2023-01-28T17:44:20.435Z,6.60
2023-01-28T17:46:48.550Z,6.60
2023-01-28T17:49:16.666Z,6.54
2023-01-28T17:51:44.805Z,6.57
2023-01-28T17:54:15.756Z,6.51
2023-01-28T17:56:43.815Z,6.50
2023-01-28T17:59:16.607Z,6.51
2023-01-28T18:01:47.455Z,6.50
2023-01-28T18:04:16.800Z,6.49
2023-01-28T18:06:47.188Z,6.42
2023-01-28T18:09:16.990Z,6.44
2023-01-28T18:11:45.197Z,6.32
2023-01-28T18:14:13.214Z,6.36
2023-01-28T18:16:41.245Z,6.37
2023-01-28T18:19:13.685Z,6.33
2023-01-28T18:21:52.769Z,6.32
2023-01-28T18:24:24.438Z,6.31
2023-01-28T18:26:55.795Z,6.28
2023-01-28T18:29:25.050Z,6.25
2023-01-28T18:31:55.343Z,6.20
2023-01-28T18:34:24.274Z,6.17
2023-01-28T18:36:52.832Z,6.14
2023-01-28T18:39:21.914Z,6.06
2023-01-28T18:41:53.707Z,5.97
2023-01-28T18:44:23.655Z,5.85
2023-01-28T18:46:52.326Z,5.71
2023-01-28T18:49:20.572Z,5.58
2023-01-28T18:51:49.314Z,5.45
2023-01-28T18:54:17.575Z,5.25
2023-01-28T18:56:46.310Z,5.04
2023-01-28T18:59:16.084Z,4.88
2023-01-28T19:01:44.707Z,4.63
2023-01-28T19:04:13.512Z,4.40
2023-01-28T19:06:41.766Z,4.20
2023-01-28T19:09:11.445Z,4.06
2023-01-28T19:11:41.287Z,3.88
2023-01-28T19:14:09.767Z,3.69
2023-01-28T19:16:39.328Z,3.58
2023-01-28T19:19:08.645Z,3.44
2023-01-28T19:21:37.966Z,3.33
2023-01-28T19:24:09.846Z,3.19
2023-01-28T19:26:38.942Z,3.05
2023-01-28T19:29:07.897Z,2.89
2023-01-28T19:31:37.635Z,2.79
2023-01-28T19:34:08.658Z,2.72
2023-01-28T19:36:37.483Z,2.66
2023-01-28T19:39:07.247Z,2.59
2023-01-28T19:41:36.834Z,2.55
2023-01-28T19:44:05.777Z,2.50
2023-01-28T19:46:34.626Z,2.45
2023-01-28T19:49:02.871Z,2.38
2023-01-28T19:51:32.509Z,2.34
2023-01-28T19:54:01.052Z,2.33
2023-01-28T19:56:30.035Z,2.35
2023-01-28T19:58:58.729Z,2.33
2023-01-28T20:01:30.273Z,2.29
2023-01-28T20:04:00.229Z,2.25
2023-01-28T20:06:29.189Z,2.16
2023-01-28T20:09:00.542Z,2.09
2023-01-28T20:11:29.771Z,2.04
2023-01-28T20:13:58.108Z,1.98
2023-01-28T20:16:27.956Z,1.92
2023-01-28T20:18:57.360Z,1.88
2023-01-28T20:21:26.529Z,1.83
2023-01-28T20:23:55.484Z,1.80
2023-01-28T20:26:27.484Z,1.78
2023-01-28T20:28:55.773Z,1.74
2023-01-28T20:31:24.394Z,1.71
2023-01-28T20:33:53.324Z,1.69
2023-01-28T20:36:21.407Z,1.68
2023-01-28T20:38:49.880Z,1.65
2023-01-28T20:41:18.609Z,1.63
2023-01-28T20:43:48.788Z,1.61
2023-01-28T20:46:19.363Z,1.63
2023-01-28T20:48:49.131Z,1.65
2023-01-28T20:51:17.988Z,1.66
2023-01-28T20:53:47.098Z,1.69
2023-01-28T20:56:17.268Z,1.72
2023-01-28T20:58:46.028Z,1.77
2023-01-28T21:01:19.728Z,1.84
2023-01-28T21:03:48.323Z,1.92
2023-01-28T21:06:16.943Z,1.98
2023-01-28T21:08:45.704Z,2.04
2023-01-28T21:11:14.382Z,2.09
2023-01-28T21:13:42.791Z,2.16
2023-01-28T21:16:11.068Z,2.21
2023-01-28T21:18:40.593Z,2.29
2023-01-28T21:21:09.946Z,2.36
2023-01-28T21:23:38.013Z,2.41
2023-01-28T21:26:07.771Z,2.45
2023-01-28T21:28:36.465Z,2.49
2023-01-28T21:31:09.148Z,2.55
2023-01-28T21:33:37.656Z,2.62
2023-01-28T21:36:11.446Z,2.67
2023-01-28T21:38:40.022Z,2.69
2023-01-28T21:41:09.516Z,2.73
2023-01-28T21:43:37.892Z,2.72
2023-01-28T21:46:06.659Z,2.75
2023-01-28T21:48:35.287Z,2.78
2023-01-28T21:51:24.477Z,2.81
2023-01-28T21:53:54.373Z,2.84
2023-01-28T21:56:23.349Z,2.86
2023-01-28T21:59:08.986Z,2.90
2023-01-28T22:01:37.223Z,2.91
2023-01-28T22:04:06.050Z,2.93
2023-01-28T22:06:34.315Z,2.96
2023-01-28T22:09:04.855Z,2.96
2023-01-28T22:11:33.670Z,3.00
2023-01-28T22:14:01.707Z,3.02
2023-01-28T22:16:29.843Z,3.06
2023-01-28T22:18:57.961Z,3.08
2023-01-28T22:21:26.265Z,3.10
2023-01-28T22:23:54.378Z,3.13
2023-01-28T22:26:24.172Z,3.16
2023-01-28T22:28:52.600Z,3.18
2023-01-28T22:31:21.165Z,3.19
2023-01-28T22:33:50.122Z,3.20
2023-01-28T22:36:18.218Z,3.20
2023-01-28T22:38:46.624Z,3.22
2023-01-28T22:41:19.311Z,3.22
2023-01-28T22:43:48.860Z,3.24
2023-01-28T22:46:17.359Z,3.26
2023-01-28T22:48:45.789Z,3.28
2023-01-28T22:51:16.340Z,3.32
2023-01-28T22:53:44.531Z,3.31
2023-01-28T22:56:12.674Z,3.31
2023-01-28T22:58:40.700Z,3.26
2023-01-28T23:01:10.472Z,3.29
2023-01-28T23:03:38.571Z,3.29
2023-01-28T23:06:07.035Z,3.30
2023-01-28T23:08:35.291Z,3.31
2023-01-28T23:11:03.828Z,3.31
2023-01-28T23:13:53.273Z,3.28
2023-01-28T23:16:39.980Z,3.30
2023-01-28T23:19:26.293Z,3.29
2023-01-28T23:22:12.024Z,3.28
2023-01-28T23:24:40.297Z,3.27
2023-01-28T23:27:08.374Z,3.25
2023-01-28T23:29:36.856Z,3.19
2023-01-28T23:32:09.889Z,3.15
2023-01-28T23:34:38.798Z,3.09
2023-01-28T23:37:08.283Z,3.07
2023-01-28T23:39:36.440Z,3.05
2023-01-28T23:42:14.477Z,3.02
2023-01-28T23:44:42.595Z,2.97
2023-01-28T23:47:12.429Z,2.94
2023-01-28T23:49:40.957Z,2.88
2023-01-28T23:52:09.551Z,2.84
2023-01-28T23:54:37.665Z,2.84
2023-01-28T23:57:06.411Z,2.76
2023-01-28T23:59:34.651Z,2.74
